sensor_id;sensor_type;location;lat;lon;timestamp;pressure;altitude;pressure_sealevel;temperature;humidity
79269;BME280;68714;48.586;7.772;2023-05-02T00:00:40;100038.34;;;13.11;55.52
79269;BME280;68714;48.586;7.772;2023-05-02T00:03:05;100031.44;;;13.08;55.56
79269;BME280;68714;48.586;7.772;2023-05-02T00:05:33;100023.41;;;13.10;55.49
79269;BME280;68714;48.586;7.772;2023-05-02T00:07:58;100027.13;;;13.06;55.77
79269;BME280;68714;48.586;7.772;2023-05-02T00:10:24;100026.38;;;13.03;55.86
79269;BME280;68714;48.586;7.772;2023-05-02T00:12:49;100031.81;;;13.00;55.64
79269;BME280;68714;48.586;7.772;2023-05-02T00:15:18;100037.97;;;13.01;55.81
79269;BME280;68714;48.586;7.772;2023-05-02T00:17:43;100037.97;;;13.01;55.70
79269;BME280;68714;48.586;7.772;2023-05-02T00:20:10;100042.47;;;12.99;56.19
79269;BME280;68714;48.586;7.772;2023-05-02T00:22:36;100038.25;;;12.95;56.02
79269;BME280;68714;48.586;7.772;2023-05-02T00:25:05;100032.25;;;12.91;56.30
79269;BME280;68714;48.586;7.772;2023-05-02T00:27:31;100034.16;;;12.88;56.00
79269;BME280;68714;48.586;7.772;2023-05-02T00:29:57;100040.28;;;12.90;56.21
79269;BME280;68714;48.586;7.772;2023-05-02T00:32:24;100038.63;;;12.87;56.13
79269;BME280;68714;48.586;7.772;2023-05-02T00:34:50;100050.22;;;12.84;56.49
79269;BME280;68714;48.586;7.772;2023-05-02T00:37:15;100050.34;;;12.81;56.44
79269;BME280;68714;48.586;7.772;2023-05-02T00:39:41;100051.31;;;12.80;56.92
79269;BME280;68714;48.586;7.772;2023-05-02T00:42:07;100051.44;;;12.77;56.73
79269;BME280;68714;48.586;7.772;2023-05-02T00:44:32;100045.41;;;12.74;56.81
79269;BME280;68714;48.586;7.772;2023-05-02T00:47:00;100044.50;;;12.75;56.66
79269;BME280;68714;48.586;7.772;2023-05-02T00:49:26;100041.94;;;12.73;56.90
79269;BME280;68714;48.586;7.772;2023-05-02T00:51:53;100046.59;;;12.68;56.75
79269;BME280;68714;48.586;7.772;2023-05-02T00:54:19;100048.66;;;12.61;56.75
79269;BME280;68714;48.586;7.772;2023-05-02T00:56:44;100046.28;;;12.55;56.82
79269;BME280;68714;48.586;7.772;2023-05-02T00:59:11;100052.66;;;12.51;57.10
79269;BME280;68714;48.586;7.772;2023-05-02T01:02:10;100050.34;;;12.43;58.68
79269;BME280;68714;48.586;7.772;2023-05-02T01:04:53;100057.72;;;12.37;57.88
79269;BME280;68714;48.586;7.772;2023-05-02T01:10:00;100058.19;;;12.26;57.62
79269;BME280;68714;48.586;7.772;2023-05-02T01:12:47;100054.31;;;12.14;58.43
79269;BME280;68714;48.586;7.772;2023-05-02T01:15:20;100062.38;;;12.11;57.45
79269;BME280;68714;48.586;7.772;2023-05-02T01:17:47;100057.22;;;12.08;57.96
79269;BME280;68714;48.586;7.772;2023-05-02T01:20:20;100059.03;;;12.07;57.89
79269;BME280;68714;48.586;7.772;2023-05-02T01:22:46;100061.94;;;12.01;57.91
79269;BME280;68714;48.586;7.772;2023-05-02T01:25:30;100056.72;;;12.00;58.39
79269;BME280;68714;48.586;7.772;2023-05-02T01:30:40;100065.44;;;12.02;58.07
79269;BME280;68714;48.586;7.772;2023-05-02T01:33:10;100066.31;;;12.02;57.93
79269;BME280;68714;48.586;7.772;2023-05-02T01:35:36;100068.06;;;12.02;58.08
79269;BME280;68714;48.586;7.772;2023-05-02T01:38:04;100072.50;;;12.01;57.66
79269;BME280;68714;48.586;7.772;2023-05-02T01:40:32;100074.31;;;12.01;58.02
79269;BME280;68714;48.586;7.772;2023-05-02T01:42:59;100078.66;;;12.02;57.72
79269;BME280;68714;48.586;7.772;2023-05-02T01:45:28;100080.44;;;12.01;57.86
79269;BME280;68714;48.586;7.772;2023-05-02T01:47:54;100084.75;;;12.04;57.70
79269;BME280;68714;48.586;7.772;2023-05-02T01:50:23;100083.09;;;12.01;57.75
79269;BME280;68714;48.586;7.772;2023-05-02T01:52:51;100092.91;;;11.99;58.04
79269;BME280;68714;48.586;7.772;2023-05-02T01:55:17;100094.78;;;11.95;57.83
79269;BME280;68714;48.586;7.772;2023-05-02T01:57:45;100102.78;;;11.94;57.92
79269;BME280;68714;48.586;7.772;2023-05-02T02:00:12;100105.53;;;11.91;57.92
79269;BME280;68714;48.586;7.772;2023-05-02T02:02:40;100105.38;;;11.95;58.46
79269;BME280;68714;48.586;7.772;2023-05-02T02:05:07;100103.75;;;11.93;58.04
79269;BME280;68714;48.586;7.772;2023-05-02T02:07:33;100107.09;;;11.97;58.05
79269;BME280;68714;48.586;7.772;2023-05-02T02:10:02;100106.38;;;11.93;58.36
79269;BME280;68714;48.586;7.772;2023-05-02T02:12:31;100122.28;;;11.91;58.59
79269;BME280;68714;48.586;7.772;2023-05-02T02:15:07;100124.13;;;11.89;58.46
79269;BME280;68714;48.586;7.772;2023-05-02T02:17:48;100111.97;;;11.85;59.29
79269;BME280;68714;48.586;7.772;2023-05-02T02:20:17;100122.47;;;11.87;58.38
79269;BME280;68714;48.586;7.772;2023-05-02T02:22:44;100125.84;;;11.90;58.63
79269;BME280;68714;48.586;7.772;2023-05-02T02:25:11;100126.75;;;11.89;58.67
79269;BME280;68714;48.586;7.772;2023-05-02T02:27:38;100118.81;;;11.89;58.34
79269;BME280;68714;48.586;7.772;2023-05-02T02:30:05;100119.78;;;11.88;58.66
79269;BME280;68714;48.586;7.772;2023-05-02T02:32:31;100130.22;;;11.91;58.46
79269;BME280;68714;48.586;7.772;2023-05-02T02:34:56;100122.34;;;11.90;58.56
79269;BME280;68714;48.586;7.772;2023-05-02T02:37:47;100126.59;;;11.94;59.37
79269;BME280;68714;48.586;7.772;2023-05-02T02:43:32;100128.38;;;11.93;58.98
79269;BME280;68714;48.586;7.772;2023-05-02T02:49:24;100138.00;;;11.96;59.33
79269;BME280;68714;48.586;7.772;2023-05-02T02:52:04;100131.88;;;11.94;58.60
79269;BME280;68714;48.586;7.772;2023-05-02T02:54:40;100133.63;;;11.95;59.10
79269;BME280;68714;48.586;7.772;2023-05-02T02:57:50;100136.34;;;11.92;58.94
79269;BME280;68714;48.586;7.772;2023-05-02T03:00:16;100146.09;;;11.91;59.21
79269;BME280;68714;48.586;7.772;2023-05-02T03:02:45;100144.25;;;11.93;59.38
79269;BME280;68714;48.586;7.772;2023-05-02T03:05:12;100154.00;;;11.93;59.27
79269;BME280;68714;48.586;7.772;2023-05-02T03:07:37;100161.97;;;11.91;59.09
79269;BME280;68714;48.586;7.772;2023-05-02T03:10:03;100165.72;;;11.86;59.15
79269;BME280;68714;48.586;7.772;2023-05-02T03:12:30;100164.88;;;11.84;59.24
79269;BME280;68714;48.586;7.772;2023-05-02T03:17:33;100167.53;;;11.84;59.20
79269;BME280;68714;48.586;7.772;2023-05-02T03:19:58;100178.13;;;11.84;59.18
79269;BME280;68714;48.586;7.772;2023-05-02T03:22:24;100170.25;;;11.82;59.84
79269;BME280;68714;48.586;7.772;2023-05-02T03:24:49;100175.72;;;11.77;59.78
79269;BME280;68714;48.586;7.772;2023-05-02T03:27:14;100175.00;;;11.74;59.85
79269;BME280;68714;48.586;7.772;2023-05-02T03:29:40;100178.69;;;11.70;60.21
79269;BME280;68714;48.586;7.772;2023-05-02T03:32:06;100180.41;;;11.71;60.45
79269;BME280;68714;48.586;7.772;2023-05-02T03:34:31;100179.50;;;11.72;60.39
79269;BME280;68714;48.586;7.772;2023-05-02T03:36:57;100182.00;;;11.75;60.62
79269;BME280;68714;48.586;7.772;2023-05-02T03:39:22;100187.13;;;11.80;60.56
79269;BME280;68714;48.586;7.772;2023-05-02T03:41:47;100188.75;;;11.82;60.80
79269;BME280;68714;48.586;7.772;2023-05-02T03:44:13;100179.00;;;11.84;60.92
79269;BME280;68714;48.586;7.772;2023-05-02T03:46:38;100177.13;;;11.86;60.60
79269;BME280;68714;48.586;7.772;2023-05-02T03:49:04;100181.56;;;11.86;60.67
79269;BME280;68714;48.586;7.772;2023-05-02T03:51:29;100179.06;;;11.83;60.52
79269;BME280;68714;48.586;7.772;2023-05-02T03:53:55;100176.53;;;11.80;60.38
79269;BME280;68714;48.586;7.772;2023-05-02T03:56:20;100179.31;;;11.76;60.54
79269;BME280;68714;48.586;7.772;2023-05-02T03:58:47;100179.56;;;11.70;60.71
79269;BME280;68714;48.586;7.772;2023-05-02T04:01:14;100177.94;;;11.66;60.24
79269;BME280;68714;48.586;7.772;2023-05-02T04:03:40;100187.88;;;11.61;60.68
79269;BME280;68714;48.586;7.772;2023-05-02T04:06:06;100191.66;;;11.54;60.84
79269;BME280;68714;48.586;7.772;2023-05-02T04:08:31;100199.00;;;11.47;60.74
79269;BME280;68714;48.586;7.772;2023-05-02T04:10:57;100205.41;;;11.40;60.95
79269;BME280;68714;48.586;7.772;2023-05-02T04:13:22;100207.44;;;11.33;60.84
79269;BME280;68714;48.586;7.772;2023-05-02T04:15:48;100210.34;;;11.27;61.06
79269;BME280;68714;48.586;7.772;2023-05-02T04:18:13;100216.66;;;11.23;61.46
79269;BME280;68714;48.586;7.772;2023-05-02T04:20:42;100224.69;;;11.20;61.44
79269;BME280;68714;48.586;7.772;2023-05-02T04:23:07;100228.41;;;11.14;61.48
79269;BME280;68714;48.586;7.772;2023-05-02T04:25:33;100233.81;;;11.11;61.78
79269;BME280;68714;48.586;7.772;2023-05-02T04:27:58;100235.47;;;11.14;61.91
79269;BME280;68714;48.586;7.772;2023-05-02T04:30:23;100239.72;;;11.18;62.00
79269;BME280;68714;48.586;7.772;2023-05-02T04:32:49;100243.00;;;11.24;62.04
79269;BME280;68714;48.586;7.772;2023-05-02T04:35:15;100234.84;;;11.31;62.39
79269;BME280;68714;48.586;7.772;2023-05-02T04:37:41;100243.38;;;11.37;62.01
79269;BME280;68714;48.586;7.772;2023-05-02T04:40:07;100245.84;;;11.42;62.33
79269;BME280;68714;48.586;7.772;2023-05-02T04:42:33;100252.63;;;11.49;62.47
79269;BME280;68714;48.586;7.772;2023-05-02T04:44:58;100243.63;;;11.55;62.27
79269;BME280;68714;48.586;7.772;2023-05-02T04:47:24;100258.28;;;11.62;62.59
79269;BME280;68714;48.586;7.772;2023-05-02T04:49:49;100260.69;;;11.68;62.32
79269;BME280;68714;48.586;7.772;2023-05-02T04:52:15;100257.03;;;11.72;62.58
79269;BME280;68714;48.586;7.772;2023-05-02T04:54:43;100270.91;;;11.77;62.11
79269;BME280;68714;48.586;7.772;2023-05-02T04:57:09;100274.50;;;11.76;62.25
79269;BME280;68714;48.586;7.772;2023-05-02T04:59:35;100278.78;;;11.79;62.34
79269;BME280;68714;48.586;7.772;2023-05-02T05:02:01;100273.44;;;11.81;62.03
79269;BME280;68714;48.586;7.772;2023-05-02T05:04:27;100277.69;;;11.85;62.10
79269;BME280;68714;48.586;7.772;2023-05-02T05:06:52;100271.50;;;11.86;61.88
79269;BME280;68714;48.586;7.772;2023-05-02T05:09:18;100277.63;;;11.86;61.73
79269;BME280;68714;48.586;7.772;2023-05-02T05:11:44;100278.44;;;11.88;61.58
79269;BME280;68714;48.586;7.772;2023-05-02T05:14:10;100291.63;;;11.90;61.76
79269;BME280;68714;48.586;7.772;2023-05-02T05:16:36;100296.91;;;11.90;61.29
79269;BME280;68714;48.586;7.772;2023-05-02T05:19:01;100297.75;;;11.90;61.24
79269;BME280;68714;48.586;7.772;2023-05-02T05:21:28;100308.28;;;11.92;61.34
79269;BME280;68714;48.586;7.772;2023-05-02T05:23:53;100303.03;;;11.90;61.48
79269;BME280;68714;48.586;7.772;2023-05-02T05:26:19;100309.25;;;11.89;61.49
79269;BME280;68714;48.586;7.772;2023-05-02T05:28:45;100318.06;;;11.90;61.69
79269;BME280;68714;48.586;7.772;2023-05-02T05:31:12;100318.81;;;11.93;61.51
79269;BME280;68714;48.586;7.772;2023-05-02T05:33:39;100313.47;;;11.95;61.26
79269;BME280;68714;48.586;7.772;2023-05-02T05:36:06;100323.88;;;12.00;61.55
79269;BME280;68714;48.586;7.772;2023-05-02T05:38:32;100321.00;;;12.06;61.34
79269;BME280;68714;48.586;7.772;2023-05-02T05:40:57;100325.25;;;12.10;61.67
79269;BME280;68714;48.586;7.772;2023-05-02T05:43:23;100324.13;;;12.16;61.26
79269;BME280;68714;48.586;7.772;2023-05-02T05:45:52;100330.22;;;12.18;61.33
79269;BME280;68714;48.586;7.772;2023-05-02T05:48:17;100337.97;;;12.22;61.18
79269;BME280;68714;48.586;7.772;2023-05-02T05:50:43;100338.84;;;12.23;61.18
79269;BME280;68714;48.586;7.772;2023-05-02T05:53:08;100335.16;;;12.27;61.15
79269;BME280;68714;48.586;7.772;2023-05-02T05:55:33;100332.38;;;12.30;61.38
79269;BME280;68714;48.586;7.772;2023-05-02T05:57:59;100333.94;;;12.34;61.04
79269;BME280;68714;48.586;7.772;2023-05-02T06:00:24;100330.25;;;12.38;61.28
79269;BME280;68714;48.586;7.772;2023-05-02T06:02:50;100336.22;;;12.43;61.11
79269;BME280;68714;48.586;7.772;2023-05-02T06:05:16;100334.38;;;12.45;60.84
79269;BME280;68714;48.586;7.772;2023-05-02T06:07:41;100340.59;;;12.44;60.78
79269;BME280;68714;48.586;7.772;2023-05-02T06:10:07;100341.63;;;12.40;60.61
79269;BME280;68714;48.586;7.772;2023-05-02T06:12:34;100350.53;;;12.39;60.53
79269;BME280;68714;48.586;7.772;2023-05-02T06:14:59;100341.88;;;12.34;60.74
79269;BME280;68714;48.586;7.772;2023-05-02T06:17:25;100349.09;;;12.30;60.75
79269;BME280;68714;48.586;7.772;2023-05-02T06:19:50;100350.03;;;12.29;60.60
79269;BME280;68714;48.586;7.772;2023-05-02T06:22:16;100350.03;;;12.29;60.71
79269;BME280;68714;48.586;7.772;2023-05-02T06:24:41;100356.25;;;12.28;60.48
79269;BME280;68714;48.586;7.772;2023-05-02T06:27:07;100359.03;;;12.25;60.32
79269;BME280;68714;48.586;7.772;2023-05-02T06:29:32;100358.03;;;12.28;60.64
79269;BME280;68714;48.586;7.772;2023-05-02T06:31:57;100357.78;;;12.34;60.64
79269;BME280;68714;48.586;7.772;2023-05-02T06:34:23;100364.50;;;12.43;60.52
79269;BME280;68714;48.586;7.772;2023-05-02T06:36:53;100372.00;;;12.54;60.17
79269;BME280;68714;48.586;7.772;2023-05-02T06:39:19;100371.53;;;12.64;60.12
79269;BME280;68714;48.586;7.772;2023-05-02T06:41:45;100372.81;;;12.76;59.99
79269;BME280;68714;48.586;7.772;2023-05-02T06:44:10;100371.59;;;12.85;59.71
79269;BME280;68714;48.586;7.772;2023-05-02T06:46:35;100382.91;;;12.89;59.67
79269;BME280;68714;48.586;7.772;2023-05-02T06:49:01;100381.94;;;12.91;59.71
79269;BME280;68714;48.586;7.772;2023-05-02T06:51:26;100390.66;;;12.93;59.42
79269;BME280;68714;48.586;7.772;2023-05-02T06:53:52;100390.66;;;12.93;59.55
79269;BME280;68714;48.586;7.772;2023-05-02T06:56:17;100401.06;;;12.98;59.26
79269;BME280;68714;48.586;7.772;2023-05-02T06:58:42;100405.31;;;13.02;59.48
79269;BME280;68714;48.586;7.772;2023-05-02T07:01:08;100398.16;;;13.04;59.45
79269;BME280;68714;48.586;7.772;2023-05-02T07:03:33;100408.56;;;13.09;59.15
79269;BME280;68714;48.586;7.772;2023-05-02T07:05:59;100407.56;;;13.11;59.33
79269;BME280;68714;48.586;7.772;2023-05-02T07:08:24;100404.59;;;13.19;59.25
79269;BME280;68714;48.586;7.772;2023-05-02T07:10:50;100414.06;;;13.25;59.24
79269;BME280;68714;48.586;7.772;2023-05-02T07:13:15;100415.72;;;13.27;58.97
79269;BME280;68714;48.586;7.772;2023-05-02T07:15:41;100416.53;;;13.29;59.19
79269;BME280;68714;48.586;7.772;2023-05-02T07:18:07;100413.88;;;13.29;58.74
79269;BME280;68714;48.586;7.772;2023-05-02T07:20:32;100420.81;;;13.32;58.99
79269;BME280;68714;48.586;7.772;2023-05-02T07:22:58;100423.34;;;13.35;59.17
79269;BME280;68714;48.586;7.772;2023-05-02T07:25:23;100419.59;;;13.41;59.13
79269;BME280;68714;48.586;7.772;2023-05-02T07:27:49;100418.00;;;13.36;58.96
79269;BME280;68714;48.586;7.772;2023-05-02T07:30:14;100423.44;;;13.33;58.95
79269;BME280;68714;48.586;7.772;2023-05-02T07:32:39;100425.31;;;13.30;58.82
79269;BME280;68714;48.586;7.772;2023-05-02T07:35:05;100416.53;;;13.29;59.05
79269;BME280;68714;48.586;7.772;2023-05-02T07:37:32;100419.97;;;13.31;59.07
79269;BME280;68714;48.586;7.772;2023-05-02T07:39:59;100418.81;;;13.38;59.18
79269;BME280;68714;48.586;7.772;2023-05-02T07:42:31;100418.66;;;13.42;59.08
79269;BME280;68714;48.586;7.772;2023-05-02T07:44:57;100424.47;;;13.50;58.90
79269;BME280;68714;48.586;7.772;2023-05-02T07:47:23;100423.16;;;13.60;58.95
79269;BME280;68714;48.586;7.772;2023-05-02T07:49:54;100424.44;;;13.70;58.76
79269;BME280;68714;48.586;7.772;2023-05-02T07:52:20;100421.38;;;13.80;58.47
79269;BME280;68714;48.586;7.772;2023-05-02T07:54:50;100421.50;;;13.77;58.33
79269;BME280;68714;48.586;7.772;2023-05-02T07:57:16;100427.50;;;13.82;58.36
79269;BME280;68714;48.586;7.772;2023-05-02T07:59:41;100429.88;;;13.88;58.35
79269;BME280;68714;48.586;7.772;2023-05-02T08:02:07;100431.03;;;14.01;58.44
79269;BME280;68714;48.586;7.772;2023-05-02T08:04:33;100433.41;;;14.07;57.75
79269;BME280;68714;48.586;7.772;2023-05-02T08:06:59;100435.47;;;14.01;57.78
79269;BME280;68714;48.586;7.772;2023-05-02T08:09:25;100439.78;;;14.03;57.68
79269;BME280;68714;48.586;7.772;2023-05-02T08:11:50;100437.03;;;14.05;57.47
79269;BME280;68714;48.586;7.772;2023-05-02T08:14:15;100444.66;;;14.13;57.49
79269;BME280;68714;48.586;7.772;2023-05-02T08:16:41;100447.66;;;14.05;57.34
79269;BME280;68714;48.586;7.772;2023-05-02T08:19:07;100439.19;;;13.97;57.55
79269;BME280;68714;48.586;7.772;2023-05-02T08:21:33;100447.16;;;13.97;57.84
79269;BME280;68714;48.586;7.772;2023-05-02T08:23:58;100443.81;;;14.12;57.84
79269;BME280;68714;48.586;7.772;2023-05-02T08:26:24;100441.91;;;14.33;57.83
79269;BME280;68714;48.586;7.772;2023-05-02T08:28:50;100446.38;;;14.52;57.22
79269;BME280;68714;48.586;7.772;2023-05-02T08:31:16;100448.31;;;14.67;57.20
79269;BME280;68714;48.586;7.772;2023-05-02T08:33:42;100439.28;;;14.89;57.25
79269;BME280;68714;48.586;7.772;2023-05-02T08:36:12;100435.69;;;15.07;56.20
79269;BME280;68714;48.586;7.772;2023-05-02T08:38:38;100436.81;;;15.21;56.60
79269;BME280;68714;48.586;7.772;2023-05-02T08:41:12;100443.13;;;15.36;56.07
79269;BME280;68714;48.586;7.772;2023-05-02T08:43:39;100448.19;;;15.40;56.13
79269;BME280;68714;48.586;7.772;2023-05-02T08:46:05;100445.28;;;15.45;55.92
79269;BME280;68714;48.586;7.772;2023-05-02T08:48:40;100444.91;;;15.52;55.93
79269;BME280;68714;48.586;7.772;2023-05-02T08:51:12;100450.22;;;15.70;55.41
79269;BME280;68714;48.586;7.772;2023-05-02T08:53:38;100452.09;;;15.85;55.16
79269;BME280;68714;48.586;7.772;2023-05-02T08:56:09;100450.66;;;15.96;54.70
79269;BME280;68714;48.586;7.772;2023-05-02T08:58:37;100458.22;;;16.03;54.45
79269;BME280;68714;48.586;7.772;2023-05-02T09:01:09;100467.31;;;15.99;54.52
79269;BME280;68714;48.586;7.772;2023-05-02T09:03:36;100461.66;;;16.05;54.58
79269;BME280;68714;48.586;7.772;2023-05-02T09:06:08;100464.75;;;16.14;54.74
79269;BME280;68714;48.586;7.772;2023-05-02T09:08:35;100464.88;;;16.28;54.47
79269;BME280;68714;48.586;7.772;2023-05-02T09:11:04;100459.53;;;16.44;54.33
79269;BME280;68714;48.586;7.772;2023-05-02T09:15:59;100465.88;;;16.73;53.85
79269;BME280;68714;48.586;7.772;2023-05-02T09:18:28;100454.78;;;16.97;53.66
79269;BME280;68714;48.586;7.772;2023-05-02T09:20:54;100457.09;;;17.03;53.17
79269;BME280;68714;48.586;7.772;2023-05-02T09:23:30;100460.97;;;17.28;53.41
79269;BME280;68714;48.586;7.772;2023-05-02T09:25:57;100457.97;;;17.48;52.97
79269;BME280;68714;48.586;7.772;2023-05-02T09:28:38;100458.66;;;17.52;52.45
79269;BME280;68714;48.586;7.772;2023-05-02T09:31:06;100464.47;;;17.44;52.33
79269;BME280;68714;48.586;7.772;2023-05-02T09:33:32;100468.81;;;17.31;52.18
79269;BME280;68714;48.586;7.772;2023-05-02T09:35:58;100466.09;;;17.17;52.28
79269;BME280;68714;48.586;7.772;2023-05-02T09:38:24;100464.56;;;16.97;51.83
79269;BME280;68714;48.586;7.772;2023-05-02T09:40:53;100464.94;;;16.90;52.20
79269;BME280;68714;48.586;7.772;2023-05-02T09:43:21;100463.56;;;16.99;52.49
79269;BME280;68714;48.586;7.772;2023-05-02T09:46:04;100466.44;;;17.10;51.09
79269;BME280;68714;48.586;7.772;2023-05-02T09:48:32;100476.03;;;17.29;52.01
79269;BME280;68714;48.586;7.772;2023-05-02T09:50:58;100484.34;;;17.39;51.66
79269;BME280;68714;48.586;7.772;2023-05-02T09:53:25;100470.81;;;17.42;51.52
79269;BME280;68714;48.586;7.772;2023-05-02T09:56:04;100472.00;;;17.52;51.23
79269;BME280;68714;48.586;7.772;2023-05-02T09:58:29;100470.88;;;17.71;51.51
79269;BME280;68714;48.586;7.772;2023-05-02T10:00:56;100466.72;;;17.95;51.17
79269;BME280;68714;48.586;7.772;2023-05-02T10:03:23;100459.66;;;18.09;50.94
79269;BME280;68714;48.586;7.772;2023-05-02T10:05:51;100463.34;;;18.35;50.80
79269;BME280;68714;48.586;7.772;2023-05-02T10:08:19;100460.25;;;18.56;50.37
79269;BME280;68714;48.586;7.772;2023-05-02T10:10:56;100455.97;;;18.80;49.99
79269;BME280;68714;48.586;7.772;2023-05-02T10:13:25;100460.19;;;19.12;49.49
79269;BME280;68714;48.586;7.772;2023-05-02T10:16:01;100463.84;;;19.23;49.21
79269;BME280;68714;48.586;7.772;2023-05-02T10:21:09;100451.47;;;19.48;48.88
79269;BME280;68714;48.586;7.772;2023-05-02T10:23:39;100450.91;;;19.69;48.81
79269;BME280;68714;48.586;7.772;2023-05-02T10:26:05;100451.59;;;19.85;48.64
79269;BME280;68714;48.586;7.772;2023-05-02T10:28:31;100451.25;;;20.03;48.52
79269;BME280;68714;48.586;7.772;2023-05-02T10:30:59;100449.19;;;20.19;48.09
79269;BME280;68714;48.586;7.772;2023-05-02T10:33:32;100452.53;;;20.10;47.40
79269;BME280;68714;48.586;7.772;2023-05-02T10:36:00;100448.56;;;20.03;47.61
79269;BME280;68714;48.586;7.772;2023-05-02T10:38:25;100456.50;;;20.04;47.39
79269;BME280;68714;48.586;7.772;2023-05-02T10:41:04;100447.50;;;20.05;46.71
79269;BME280;68714;48.586;7.772;2023-05-02T10:43:33;100445.22;;;20.12;47.06
79269;BME280;68714;48.586;7.772;2023-05-02T10:46:00;100446.28;;;20.22;46.90
79269;BME280;68714;48.586;7.772;2023-05-02T10:48:29;100439.66;;;20.15;46.28
79269;BME280;68714;48.586;7.772;2023-05-02T10:50:57;100439.16;;;19.97;46.24
79269;BME280;68714;48.586;7.772;2023-05-02T10:53:29;100437.63;;;20.06;46.78
79269;BME280;68714;48.586;7.772;2023-05-02T10:56:11;100441.09;;;20.32;45.11
79269;BME280;68714;48.586;7.772;2023-05-02T10:58:37;100439.31;;;20.33;45.67
79269;BME280;68714;48.586;7.772;2023-05-02T11:06:18;100435.94;;;20.05;44.88
79269;BME280;68714;48.586;7.772;2023-05-02T11:08:44;100432.22;;;19.82;44.89
79269;BME280;68714;48.586;7.772;2023-05-02T11:11:43;100429.41;;;19.57;42.98
79269;BME280;68714;48.586;7.772;2023-05-02T11:14:19;100430.38;;;19.43;44.90
79269;BME280;68714;48.586;7.772;2023-05-02T11:19:24;100435.31;;;19.75;45.33
79269;BME280;68714;48.586;7.772;2023-05-02T11:21:51;100425.97;;;20.07;45.27
79269;BME280;68714;48.586;7.772;2023-05-02T11:24:40;100430.97;;;20.48;43.89
79269;BME280;68714;48.586;7.772;2023-05-02T11:30:02;100428.25;;;20.24;44.03
79269;BME280;68714;48.586;7.772;2023-05-02T11:35:30;100424.28;;;20.30;42.90
79269;BME280;68714;48.586;7.772;2023-05-02T11:38:10;100429.47;;;20.57;42.09
79269;BME280;68714;48.586;7.772;2023-05-02T11:40:36;100417.84;;;20.94;43.58
79269;BME280;68714;48.586;7.772;2023-05-02T11:43:14;100413.03;;;21.10;43.19
79269;BME280;68714;48.586;7.772;2023-05-02T11:45:40;100406.47;;;21.26;42.96
79269;BME280;68714;48.586;7.772;2023-05-02T11:48:07;100413.69;;;21.01;42.41
79269;BME280;68714;48.586;7.772;2023-05-02T11:50:43;100411.06;;;20.77;42.25
79269;BME280;68714;48.586;7.772;2023-05-02T11:53:10;100412.06;;;20.63;42.43
79269;BME280;68714;48.586;7.772;2023-05-02T11:55:37;100412.63;;;20.79;42.92
79269;BME280;68714;48.586;7.772;2023-05-02T11:58:02;100417.25;;;21.01;42.95
79269;BME280;68714;48.586;7.772;2023-05-02T12:00:28;100409.69;;;21.07;42.78
79269;BME280;68714;48.586;7.772;2023-05-02T12:02:54;100404.91;;;20.99;42.43
79269;BME280;68714;48.586;7.772;2023-05-02T12:05:27;100403.28;;;20.85;42.22
79269;BME280;68714;48.586;7.772;2023-05-02T12:07:55;100412.41;;;20.82;42.88
79269;BME280;68714;48.586;7.772;2023-05-02T12:10:21;100414.31;;;20.69;41.77
79269;BME280;68714;48.586;7.772;2023-05-02T12:12:46;100416.22;;;20.43;42.30
79269;BME280;68714;48.586;7.772;2023-05-02T12:15:12;100420.81;;;20.41;41.92
79269;BME280;68714;48.586;7.772;2023-05-02T12:17:46;100415.41;;;20.29;42.06
79269;BME280;68714;48.586;7.772;2023-05-02T12:20:13;100411.38;;;20.11;42.36
79269;BME280;68714;48.586;7.772;2023-05-02T12:22:43;100417.00;;;19.82;42.56
79269;BME280;68714;48.586;7.772;2023-05-02T12:25:09;100428.66;;;19.68;42.43
79269;BME280;68714;48.586;7.772;2023-05-02T12:27:37;100428.63;;;19.42;42.56
79269;BME280;68714;48.586;7.772;2023-05-02T12:30:02;100427.22;;;19.24;42.74
79269;BME280;68714;48.586;7.772;2023-05-02T12:32:35;100425.94;;;19.17;43.09
79269;BME280;68714;48.586;7.772;2023-05-02T12:35:02;100436.09;;;19.24;43.26
79269;BME280;68714;48.586;7.772;2023-05-02T12:37:28;100417.16;;;19.28;43.04
79269;BME280;68714;48.586;7.772;2023-05-02T12:39:54;100427.44;;;19.34;43.13
79269;BME280;68714;48.586;7.772;2023-05-02T12:42:22;100430.56;;;19.53;42.98
79269;BME280;68714;48.586;7.772;2023-05-02T12:44:49;100426.50;;;19.73;42.70
79269;BME280;68714;48.586;7.772;2023-05-02T12:47:17;100422.56;;;19.79;42.33
79269;BME280;68714;48.586;7.772;2023-05-02T12:49:55;100419.22;;;19.63;42.20
79269;BME280;68714;48.586;7.772;2023-05-02T12:55:22;100427.34;;;19.22;42.57
79269;BME280;68714;48.586;7.772;2023-05-02T12:58:00;100425.81;;;19.18;42.98
79269;BME280;68714;48.586;7.772;2023-05-02T13:00:26;100429.06;;;19.23;42.66
79269;BME280;68714;48.586;7.772;2023-05-02T13:02:52;100440.31;;;18.88;42.72
79269;BME280;68714;48.586;7.772;2023-05-02T13:05:18;100448.81;;;18.53;43.69
79269;BME280;68714;48.586;7.772;2023-05-02T13:07:44;100445.72;;;18.18;44.67
79269;BME280;68714;48.586;7.772;2023-05-02T13:10:10;100453.16;;;17.84;45.53
79269;BME280;68714;48.586;7.772;2023-05-02T13:12:36;100459.13;;;17.44;46.67
79269;BME280;68714;48.586;7.772;2023-05-02T13:15:07;100458.78;;;17.04;49.98
79269;BME280;68714;48.586;7.772;2023-05-02T13:17:34;100463.28;;;16.72;48.94
79269;BME280;68714;48.586;7.772;2023-05-02T13:20:00;100465.72;;;16.45;49.76
79269;BME280;68714;48.586;7.772;2023-05-02T13:22:27;100467.06;;;16.20;50.43
79269;BME280;68714;48.586;7.772;2023-05-02T13:24:53;100458.13;;;16.05;51.90
79269;BME280;68714;48.586;7.772;2023-05-02T13:27:21;100464.69;;;15.82;54.32
79269;BME280;68714;48.586;7.772;2023-05-02T13:29:50;100472.44;;;15.69;53.64